KLXY

Mexia-Limestone Co Airport

Mexia, Texas, USA
METAR KLXY 182235Z AUTO 14015G21KT 10SM SCT020 BKN075 28/22 A2994 RMK AO2 T02770216
Observed Flight Rules
Jun-18 @ 22:35 UTC (12 minutes ago) Visual Flight Rules
Wind Visibility Clouds
140° at 15 knots
 Gusting to 21 knots
10 miles
  • Scattered at 2,000' AGL
  • Broken at 7,500' AGL
Temperatures Readings
Current 28°C / 82°F
Dewpoint 22°C / 72°F
Humidity 70%
Altimeter 29.94" Hg
Pressure 1014 hPa
Elevation 166
METAR KLXY 182235Z AUTO 14015G21KT 10SM SCT020 BKN075 28/22 A2994 RMK AO2 T02770216
Observed Flight Rules
Jun-18 @ 22:35 UTC
(12 minutes ago)
VFR
Wind Visibility
140° at 15 knots
 Gusting to 21 knots
10 miles
Clouds
  • Scattered at 2,000' AGL
  • Broken at 7,500' AGL
Temperature Dewpoint
28°C / 82°F 22°C / 72°F
Humidity Altimeter Pressure
70% 29.94" Hg 1014 hPa